Cottonwood, California
Current Conditions -  °F | °C
As of 6:53 PM on Saturday 20 Dec 2014 (Local Time) from KRDD Reporting Station
Light Rain Light Rain  
Wind Chill: 53°   Ceiling: 800
Heat Index: 53°   Visibility: 5mi
Dew Point: 52°   Wind: 16mph
Humidity: 96%   Direction: 180°S
Pressure: 30.16"   Gusts: NA
Location:  40.39°N, 122.28°W
Report Text: KRDD 210253Z 18014KT 5SM -RA BR OVC008 12/11 A3016 RMK AO2 RAB11 CIG 006V013 SLP214 P0002 60003 T01170111 53009
Loading
Personal Weather Stations






























Interactive Weather Map New forecast layout! Learn more

10-Day Weather Forecast

Advertisements
Track Severe Weather on mobile